Time;durP1;ratioP1;P1;durP2;ratioP2;P2;SDS_P1;SDS_P2;PMS_P1;PMS_P2;Temp;Humidity;BMP_temperature;BMP_pressure;BME280_temperature;BME280_humidity;BME280_pressure;Samples;Min_cycle;Max_cycle;Signal;HPM_P1;HPM_P2
2024/03/30 00:00:13;;;;;;;8.95;1.77;;;29.00;32.80;;;;;;5007004;28;20110;-58
2024/03/30 00:02:39;;;;;;;24.30;11.45;;;28.90;32.70;;;;;;5006088;28;20526;-60
2024/03/30 00:05:06;;;;;;;12.93;4.68;;;28.60;33.90;;;;;;4989125;28;20512;-60
2024/03/30 00:07:33;;;;;;;14.10;3.13;;;28.70;33.80;;;;;;5006703;28;20135;-58
2024/03/30 00:09:59;;;;;;;15.63;7.18;;;28.80;33.60;;;;;;5007052;28;20077;-58
2024/03/30 00:12:25;;;;;;;8.98;4.63;;;29.10;33.00;;;;;;4988093;28;20090;-59
2024/03/30 00:14:52;;;;;;;11.45;3.70;;;29.20;32.00;;;;;;5005617;28;20540;-59
2024/03/30 00:17:18;;;;;;;13.68;4.38;;;29.40;31.40;;;;;;5006261;28;20571;-59
2024/03/30 00:19:45;;;;;;;7.78;1.30;;;29.30;31.70;;;;;;4988546;28;20089;-59
2024/03/30 00:22:11;;;;;;;14.02;1.77;;;28.80;31.20;;;;;;5004365;28;20106;-60
2024/03/30 00:24:38;;;;;;;36.75;17.50;;;28.50;31.60;;;;;;5006851;28;20071;-59
2024/03/30 00:27:04;;;;;;;38.08;17.02;;;28.30;31.80;;;;;;5005755;28;20110;-58
2024/03/30 00:29:33;;;;;;;36.40;15.35;;;28.50;31.90;;;;;;5005541;28;20093;-59
2024/03/30 00:31:59;;;;;;;10.43;1.77;;;28.30;31.70;;;;;;5003619;28;20465;-60
2024/03/30 00:34:26;;;;;;;23.95;2.42;;;28.30;32.20;;;;;;5006814;28;20066;-62
2024/03/30 00:36:52;;;;;;;13.38;2.00;;;28.30;32.00;;;;;;5007362;28;20081;-60
2024/03/30 00:39:19;;;;;;;31.58;16.27;;;28.10;31.60;;;;;;5007008;28;20136;-60
2024/03/30 00:41:45;;;;;;;31.00;8.98;;;28.00;31.90;;;;;;5006347;28;20156;-59
2024/03/30 00:44:12;;;;;;;20.85;2.30;;;27.90;31.50;;;;;;4988357;28;20084;-61
2024/03/30 00:46:38;;;;;;;21.20;2.60;;;27.90;32.10;;;;;;5006687;28;20524;-59
2024/03/30 00:49:05;;;;;;;47.38;19.23;;;27.30;32.30;;;;;;5004781;28;20070;-58
2024/03/30 00:51:31;;;;;;;36.70;18.02;;;27.20;32.50;;;;;;5007117;28;20101;-58
2024/03/30 00:53:58;;;;;;;32.22;3.30;;;26.90;32.60;;;;;;5004914;28;20078;-60
2024/03/30 00:56:29;;;;;;;21.20;2.53;;;26.70;33.00;;;;;;5005173;28;20063;-59
2024/03/30 00:58:56;;;;;;;22.60;2.78;;;26.60;32.80;;;;;;5004738;28;20075;-59
2024/03/30 01:01:23;;;;;;;17.60;2.90;;;26.60;32.30;;;;;;5004284;28;20094;-59
2024/03/30 01:03:49;;;;;;;20.58;3.05;;;26.60;32.40;;;;;;5006683;28;20078;-59
2024/03/30 01:06:16;;;;;;;14.27;2.58;;;26.30;32.80;;;;;;5005275;28;20113;-59
2024/03/30 01:08:42;;;;;;;28.02;3.42;;;26.20;33.20;;;;;;5005544;28;20529;-59
2024/03/30 01:11:09;;;;;;;15.80;2.78;;;26.20;33.40;;;;;;5004679;28;20085;-59
2024/03/30 01:13:36;;;;;;;15.57;3.17;;;26.20;33.50;;;;;;5004055;28;20070;-56
2024/03/30 01:16:12;;;;;;;15.15;6.20;;;26.30;33.30;;;;;;5005379;28;20552;-57
2024/03/30 01:18:40;;;;;;;10.95;2.45;;;26.30;32.80;;;;;;5005975;28;20077;-58
2024/03/30 01:21:07;;;;;;;21.30;3.55;;;26.10;33.50;;;;;;5006391;28;20667;-59
2024/03/30 01:23:34;;;;;;;14.80;3.30;;;25.80;34.30;;;;;;5004544;28;20073;-58
2024/03/30 01:26:01;;;;;;;17.08;3.42;;;25.60;34.20;;;;;;5004039;28;20161;-59
2024/03/30 01:28:27;;;;;;;43.17;5.28;;;25.50;34.50;;;;;;5006464;28;20082;-54
2024/03/30 01:30:54;;;;;;;10.35;2.88;;;25.50;33.30;;;;;;5004103;28;20105;-57
2024/03/30 01:33:21;;;;;;;23.15;8.85;;;25.40;34.60;;;;;;5005222;28;20074;-59
2024/03/30 01:35:47;;;;;;;16.10;2.90;;;25.10;35.40;;;;;;5005111;28;20418;-58
2024/03/30 01:38:14;;;;;;;14.00;2.35;;;25.00;36.50;;;;;;5004297;28;20070;-60
2024/03/30 01:40:41;;;;;;;21.40;3.00;;;24.80;35.70;;;;;;5007482;28;20126;-57
2024/03/30 01:43:07;;;;;;;26.77;3.00;;;24.70;35.50;;;;;;5005838;28;20098;-59
2024/03/30 01:45:36;;;;;;;15.00;2.65;;;24.50;35.70;;;;;;5006908;28;20464;-60
2024/03/30 01:48:06;;;;;;;12.30;2.22;;;24.40;35.70;;;;;;5006999;28;20069;-61
2024/03/30 01:50:33;;;;;;;12.43;2.17;;;24.30;35.50;;;;;;5004808;28;20584;-60
2024/03/30 01:53:04;;;;;;;37.15;3.58;;;24.20;35.50;;;;;;5007072;28;20113;-60
2024/03/30 01:55:31;;;;;;;15.18;2.63;;;24.10;35.80;;;;;;5005544;28;20548;-60
2024/03/30 01:57:59;;;;;;;14.70;2.95;;;24.00;35.80;;;;;;5005914;28;20460;-55
2024/03/30 02:00:27;;;;;;;13.15;3.05;;;23.80;35.80;;;;;;5006088;28;20102;-60
2024/03/30 02:02:54;;;;;;;16.33;2.63;;;23.80;36.00;;;;;;5007075;28;20070;-62
2024/03/30 02:05:21;;;;;;;13.00;2.75;;;23.70;35.90;;;;;;5006383;28;20082;-60
2024/03/30 02:07:47;;;;;;;34.95;14.27;;;23.60;35.80;;;;;;5005739;28;20078;-59
2024/03/30 02:10:14;;;;;;;9.25;2.40;;;23.60;35.80;;;;;;5010091;28;20074;-59
2024/03/30 02:12:44;;;;;;;20.52;2.85;;;23.50;36.10;;;;;;4990745;28;20672;-60
2024/03/30 02:15:10;;;;;;;24.13;3.13;;;23.40;36.20;;;;;;5010697;28;20443;-60
2024/03/30 02:17:37;;;;;;;21.10;2.55;;;23.40;36.40;;;;;;5010313;28;20509;-62
2024/03/30 02:20:03;;;;;;;18.95;2.65;;;23.30;36.40;;;;;;5007692;28;20078;-57
2024/03/30 02:22:30;;;;;;;24.55;2.58;;;23.10;36.60;;;;;;5008953;28;20066;-61
2024/03/30 02:24:57;;;;;;;28.77;3.22;;;23.00;36.90;;;;;;5010561;28;20075;-59
2024/03/30 02:27:23;;;;;;;25.35;3.15;;;22.90;37.10;;;;;;5009438;28;20094;-60
2024/03/30 02:29:58;;;;;;;40.13;3.22;;;22.80;37.20;;;;;;5007587;28;20136;-60
2024/03/30 02:32:25;;;;;;;28.95;2.50;;;22.80;37.30;;;;;;5010106;28;20070;-57
2024/03/30 02:34:52;;;;;;;23.40;3.03;;;22.70;37.50;;;;;;4991838;28;20090;-60
2024/03/30 02:37:19;;;;;;;34.90;3.20;;;22.50;37.60;;;;;;5007843;28;20129;-55
2024/03/30 02:39:45;;;;;;;14.05;2.13;;;22.30;37.50;;;;;;5009590;28;20208;-56
2024/03/30 02:42:12;;;;;;;25.08;3.00;;;22.20;37.80;;;;;;4990008;28;20464;-60
2024/03/30 02:44:38;;;;;;;26.33;2.80;;;22.10;37.60;;;;;;5010204;28;20074;-60
2024/03/30 02:47:05;;;;;;;22.00;3.58;;;22.00;37.10;;;;;;5009514;28;20085;-58
2024/03/30 02:49:32;;;;;;;17.75;2.25;;;21.80;36.90;;;;;;5009618;28;20094;-59
2024/03/30 02:51:58;;;;;;;24.88;3.38;;;21.80;36.80;;;;;;5008139;28;20067;-56
2024/03/30 02:54:24;;;;;;;19.58;2.42;;;21.70;36.70;;;;;;5009189;28;20074;-56
2024/03/30 02:56:51;;;;;;;15.13;2.13;;;21.80;36.40;;;;;;5006459;28;20089;-59
2024/03/30 02:59:17;;;;;;;19.75;2.72;;;21.70;35.70;;;;;;5008815;28;20118;-53
2024/03/30 03:01:45;;;;;;;24.48;2.92;;;21.70;35.70;;;;;;5007692;28;20098;-59
2024/03/30 03:04:11;;;;;;;39.15;3.17;;;21.60;35.00;;;;;;5008879;28;20456;-60
2024/03/30 03:06:38;;;;;;;41.63;4.18;;;21.60;35.00;;;;;;5008285;28;20572;-60
2024/03/30 03:09:05;;;;;;;45.97;4.25;;;21.50;34.50;;;;;;4990195;28;20090;-58
2024/03/30 03:11:31;;;;;;;24.75;2.83;;;21.40;34.60;;;;;;5009781;28;20144;-60
2024/03/30 03:13:58;;;;;;;29.80;3.33;;;21.30;34.70;;;;;;5006969;28;20209;-59
2024/03/30 03:16:24;;;;;;;20.08;3.03;;;21.20;34.40;;;;;;5006842;28;20552;-61
2024/03/30 03:18:51;;;;;;;14.25;2.35;;;21.10;33.80;;;;;;5003204;28;21519;-58
2024/03/30 03:21:18;;;;;;;16.92;2.55;;;21.10;34.00;;;;;;5005927;28;20112;-53
2024/03/30 03:23:45;;;;;;;21.45;3.10;;;21.00;34.00;;;;;;4987444;28;20074;-56
2024/03/30 03:26:11;;;;;;;43.55;4.10;;;21.00;34.00;;;;;;5006069;28;20075;-59
2024/03/30 03:28:38;;;;;;;33.75;3.20;;;20.90;33.80;;;;;;5006624;28;20086;-60
2024/03/30 03:31:05;;;;;;;29.42;3.53;;;20.90;33.80;;;;;;4987212;28;20427;-58
2024/03/30 03:33:31;;;;;;;25.42;2.90;;;20.80;33.90;;;;;;5007273;28;20070;-59
2024/03/30 03:36:00;;;;;;;27.92;3.17;;;20.70;33.80;;;;;;5005654;28;20083;-57
2024/03/30 03:38:26;;;;;;;18.17;2.20;;;20.70;33.80;;;;;;5007846;28;20185;-53
2024/03/30 03:40:56;;;;;;;20.60;2.45;;;20.60;34.00;;;;;;5004086;28;20102;-56
2024/03/30 03:43:22;;;;;;;17.23;2.60;;;20.60;34.20;;;;;;4988368;28;20084;-59
2024/03/30 03:45:49;;;;;;;27.38;3.10;;;20.50;34.20;;;;;;5004373;28;20082;-55
2024/03/30 03:48:16;;;;;;;41.67;3.80;;;20.50;34.40;;;;;;5005489;28;20071;-62
2024/03/30 03:50:42;;;;;;;27.75;3.53;;;20.40;34.90;;;;;;5004431;28;20173;-56
2024/03/30 03:53:09;;;;;;;21.63;2.88;;;20.40;34.50;;;;;;5003181;28;20137;-55
2024/03/30 03:55:37;;;;;;;16.20;2.63;;;20.30;34.60;;;;;;5007259;28;20062;-56
2024/03/30 03:58:03;;;;;;;15.95;2.85;;;20.20;34.50;;;;;;5006187;28;20165;-53
2024/03/30 04:00:31;;;;;;;21.15;2.45;;;20.30;34.80;;;;;;5006293;28;20109;-55
2024/03/30 04:02:57;;;;;;;23.77;2.40;;;20.20;34.70;;;;;;5006908;28;20074;-55
2024/03/30 04:05:25;;;;;;;20.63;2.53;;;20.20;34.80;;;;;;5004714;28;20071;-55
2024/03/30 04:07:51;;;;;;;24.45;2.97;;;20.10;34.80;;;;;;5007799;28;20097;-51
2024/03/30 04:10:20;;;;;;;26.75;2.72;;;20.00;34.70;;;;;;5006635;28;20184;-56
2024/03/30 04:12:48;;;;;;;23.67;2.20;;;20.00;34.80;;;;;;5007475;28;20102;-55
2024/03/30 04:15:15;;;;;;;22.75;2.55;;;20.00;35.10;;;;;;5005606;28;20089;-58
2024/03/30 04:17:41;;;;;;;32.15;2.40;;;19.90;35.40;;;;;;5006532;28;20082;-52
2024/03/30 04:20:09;;;;;;;24.75;2.58;;;19.90;35.90;;;;;;5003624;28;20096;-57
2024/03/30 04:22:35;;;;;;;20.65;2.05;;;19.90;36.50;;;;;;5004913;28;20070;-52
2024/03/30 04:25:02;;;;;;;17.52;2.05;;;19.80;37.20;;;;;;5005401;28;20086;-55
2024/03/30 04:27:29;;;;;;;21.77;2.92;;;19.80;38.00;;;;;;5006335;28;20086;-55
2024/03/30 04:29:57;;;;;;;19.40;2.97;;;19.70;38.60;;;;;;4986010;28;20273;-54
2024/03/30 04:32:23;;;;;;;33.50;3.40;;;19.60;39.70;;;;;;5005594;28;20105;-50
2024/03/30 04:34:50;;;;;;;32.30;3.38;;;19.60;40.40;;;;;;4985048;28;20085;-57
2024/03/30 04:37:16;;;;;;;32.22;2.67;;;19.50;41.30;;;;;;5004479;28;20520;-55
2024/03/30 04:39:44;;;;;;;18.95;2.53;;;19.50;42.00;;;;;;5004394;28;20137;-58
2024/03/30 04:42:10;;;;;;;19.42;2.53;;;19.50;42.40;;;;;;5005790;28;20105;-54
2024/03/30 04:44:37;;;;;;;12.40;1.90;;;19.50;42.80;;;;;;5002144;28;20082;-56
2024/03/30 04:47:04;;;;;;;19.90;2.55;;;19.50;43.20;;;;;;5004781;28;21126;-56
2024/03/30 04:49:30;;;;;;;10.32;2.22;;;19.50;43.60;;;;;;5003507;28;20082;-55
2024/03/30 04:51:57;;;;;;;15.93;2.30;;;19.40;44.30;;;;;;5004691;28;20074;-58
2024/03/30 04:54:23;;;;;;;14.50;2.03;;;19.40;45.00;;;;;;5004448;28;20545;-54
2024/03/30 04:56:49;;;;;;;16.95;2.20;;;19.40;45.90;;;;;;5004739;28;20169;-56
2024/03/30 04:59:16;;;;;;;10.82;1.70;;;19.20;46.90;;;;;;5003331;28;20083;-58
2024/03/30 05:01:43;;;;;;;10.77;1.85;;;19.20;47.70;;;;;;5002861;28;20094;-55
2024/03/30 05:04:09;;;;;;;21.58;2.00;;;19.00;48.20;;;;;;5002125;28;20070;-58
2024/03/30 05:06:35;;;;;;;8.07;1.60;;;19.10;48.70;;;;;;5003039;28;20590;-58
2024/03/30 05:09:02;;;;;;;45.38;9.05;;;19.00;49.00;;;;;;5003723;28;20173;-54
2024/03/30 05:11:28;;;;;;;20.75;2.15;;;19.00;50.00;;;;;;5004355;28;20089;-58
2024/03/30 05:13:55;;;;;;;10.32;1.92;;;19.00;49.70;;;;;;4987429;28;20105;-60
2024/03/30 05:16:21;;;;;;;18.88;2.05;;;18.90;50.00;;;;;;5003523;28;20074;-58
2024/03/30 05:18:48;;;;;;;24.33;2.17;;;18.80;50.20;;;;;;5002734;28;21641;-55
2024/03/30 05:21:14;;;;;;;13.38;1.92;;;18.80;50.40;;;;;;4983020;28;20641;-59
2024/03/30 05:23:41;;;;;;;8.30;1.70;;;18.90;50.70;;;;;;5001904;28;20528;-55
2024/03/30 05:26:07;;;;;;;15.48;1.77;;;18.90;51.00;;;;;;5003916;28;20102;-59
2024/03/30 05:28:36;;;;;;;10.57;1.80;;;18.80;51.20;;;;;;5002269;28;20078;-58
2024/03/30 05:31:29;;;;;;;21.23;2.08;;;18.90;51.40;;;;;;5000900;28;20069;-60
2024/03/30 05:33:55;;;;;;;11.32;1.45;;;18.80;51.50;;;;;;4997926;28;20066;-59
2024/03/30 05:36:22;;;;;;;42.95;17.83;;;18.80;51.80;;;;;;5002656;28;20067;-59
2024/03/30 05:38:48;;;;;;;28.10;17.00;;;18.80;52.00;;;;;;5004446;28;20594;-54
2024/03/30 05:41:15;;;;;;;7.78;1.50;;;18.80;52.00;;;;;;5006999;28;20160;-57
2024/03/30 05:43:41;;;;;;;8.90;1.67;;;18.80;52.10;;;;;;5008292;28;20083;-56
2024/03/30 05:46:09;;;;;;;6.85;1.30;;;18.80;52.40;;;;;;5008790;28;20066;-61
2024/03/30 05:48:36;;;;;;;5.88;1.40;;;18.80;52.40;;;;;;5009434;28;20081;-60
2024/03/30 05:51:04;;;;;;;15.70;1.60;;;18.80;52.50;;;;;;5011208;28;20101;-59
2024/03/30 05:53:30;;;;;;;12.10;1.13;;;18.80;52.70;;;;;;5010445;28;20129;-58
2024/03/30 05:55:57;;;;;;;3.22;1.35;;;18.80;52.60;;;;;;5011024;28;20097;-59
2024/03/30 05:58:23;;;;;;;5.13;1.73;;;18.80;52.90;;;;;;4993335;28;20157;-59
2024/03/30 06:00:50;;;;;;;5.13;1.27;;;18.70;53.10;;;;;;5008230;28;20098;-58
2024/03/30 06:03:16;;;;;;;9.30;1.65;;;18.70;53.60;;;;;;5010315;28;20078;-55
2024/03/30 06:05:43;;;;;;;6.15;1.08;;;18.60;54.10;;;;;;5010642;28;20093;-57
2024/03/30 06:08:09;;;;;;;3.42;1.13;;;18.60;54.40;;;;;;5011353;28;20086;-58
2024/03/30 06:10:36;;;;;;;6.35;1.40;;;18.50;54.60;;;;;;5010620;28;20092;-57
2024/03/30 06:13:02;;;;;;;2.45;1.20;;;18.40;54.90;;;;;;5010633;28;20086;-54
2024/03/30 06:15:28;;;;;;;11.02;1.50;;;18.50;55.00;;;;;;4990925;28;20216;-47
2024/03/30 06:17:55;;;;;;;7.65;1.42;;;18.50;55.20;;;;;;5009239;28;20071;-52
2024/03/30 06:20:21;;;;;;;6.22;1.60;;;18.40;55.30;;;;;;5010633;28;20078;-47
2024/03/30 06:22:48;;;;;;;7.40;1.02;;;18.40;55.50;;;;;;5011573;28;20066;-50
2024/03/30 06:25:14;;;;;;;18.95;1.73;;;18.30;55.70;;;;;;4992774;28;20079;-50
2024/03/30 06:27:41;;;;;;;3.35;1.23;;;18.30;56.00;;;;;;4992845;28;20470;-47
2024/03/30 06:30:07;;;;;;;8.25;1.67;;;18.30;56.10;;;;;;5010639;28;20125;-52
2024/03/30 06:32:34;;;;;;;7.60;1.33;;;18.30;56.20;;;;;;4992290;28;20311;-48
2024/03/30 06:35:01;;;;;;;5.53;1.45;;;18.30;56.30;;;;;;5010063;28;20078;-48
2024/03/30 06:37:27;;;;;;;7.32;1.63;;;18.30;56.20;;;;;;5009203;28;20141;-49
2024/03/30 06:45:23;;;;;;;7.32;1.83;;;18.30;56.70;;;;;;5008400;28;20141;-51
2024/03/30 06:47:52;;;;;;;10.70;2.08;;;18.30;56.20;;;;;;5011462;28;20079;-49
2024/03/30 06:50:19;;;;;;;7.50;1.80;;;18.20;56.20;;;;;;5011503;28;20079;-56
2024/03/30 06:52:45;;;;;;;4.55;1.58;;;18.20;55.80;;;;;;5011086;28;20074;-49
2024/03/30 06:55:12;;;;;;;13.82;1.55;;;18.20;55.70;;;;;;4990854;28;20141;-50
2024/03/30 06:57:38;;;;;;;7.13;1.80;;;18.10;55.70;;;;;;5010131;28;20070;-48
2024/03/30 07:00:05;;;;;;;7.53;1.42;;;18.20;55.60;;;;;;5011383;28;20070;-52
2024/03/30 07:02:33;;;;;;;12.05;1.70;;;18.10;54.90;;;;;;5010956;28;20227;-53
2024/03/30 07:04:59;;;;;;;4.60;1.10;;;18.20;54.80;;;;;;4992842;28;20083;-53
2024/03/30 07:07:26;;;;;;;4.90;1.20;;;18.20;54.60;;;;;;5009521;28;20105;-60
2024/03/30 07:09:52;;;;;;;7.07;1.48;;;18.60;54.10;;;;;;4992476;28;20074;-60
2024/03/30 07:12:18;;;;;;;8.27;1.52;;;18.70;53.00;;;;;;4990600;28;20161;-60
2024/03/30 07:14:45;;;;;;;7.70;1.88;;;19.10;52.40;;;;;;5010184;28;20075;-60
2024/03/30 07:17:12;;;;;;;3.65;1.40;;;19.10;52.30;;;;;;5009994;28;20524;-61
2024/03/30 07:19:39;;;;;;;4.50;1.33;;;19.40;52.30;;;;;;5010276;28;20066;-59
2024/03/30 07:22:06;;;;;;;4.20;1.30;;;19.50;50.80;;;;;;5008125;28;20098;-61
2024/03/30 07:24:33;;;;;;;3.40;1.63;;;19.10;51.20;;;;;;5010677;28;20416;-58
2024/03/30 07:26:59;;;;;;;5.80;2.00;;;19.10;51.60;;;;;;5007580;28;20074;-58
2024/03/30 07:29:26;;;;;;;6.65;2.65;;;19.10;51.70;;;;;;5009519;28;20095;-60
2024/03/30 07:31:55;;;;;;;6.00;2.05;;;19.70;50.90;;;;;;5008263;28;20097;-59
2024/03/30 07:34:22;;;;;;;7.95;1.88;;;19.40;51.10;;;;;;4991451;28;20174;-59
2024/03/30 07:36:48;;;;;;;7.60;2.03;;;19.10;51.50;;;;;;4991687;28;20070;-59
2024/03/30 07:39:15;;;;;;;9.13;3.05;;;19.30;51.70;;;;;;5009144;28;20102;-59
2024/03/30 07:41:42;;;;;;;9.10;2.25;;;19.40;51.20;;;;;;5007987;28;20098;-59
2024/03/30 07:44:09;;;;;;;11.23;2.70;;;19.40;51.30;;;;;;5008000;28;20086;-59
2024/03/30 07:46:36;;;;;;;6.72;2.63;;;19.20;51.60;;;;;;4991393;28;20377;-59
2024/03/30 07:49:02;;;;;;;10.15;2.60;;;19.60;51.60;;;;;;5007897;28;20427;-60
2024/03/30 07:51:28;;;;;;;9.15;2.08;;;19.80;51.10;;;;;;5009044;28;20066;-61
2024/03/30 07:53:55;;;;;;;5.82;1.80;;;19.70;51.20;;;;;;5007513;28;20063;-59
2024/03/30 07:56:25;;;;;;;5.25;1.48;;;19.50;51.70;;;;;;5007262;28;20066;-59
2024/03/30 07:58:52;;;;;;;4.82;1.63;;;19.20;52.20;;;;;;5008493;28;20102;-59
2024/03/30 08:01:18;;;;;;;2.78;1.13;;;18.80;53.30;;;;;;4991764;28;20098;-59
2024/03/30 08:03:45;;;;;;;2.92;1.30;;;18.60;54.00;;;;;;5007103;28;20524;-59
2024/03/30 08:06:11;;;;;;;2.83;1.20;;;18.70;54.40;;;;;;5009148;28;20090;-58
2024/03/30 08:08:38;;;;;;;7.55;1.30;;;18.70;54.50;;;;;;5007400;28;20071;-59
2024/03/30 08:11:04;;;;;;;5.47;1.33;;;19.00;54.20;;;;;;5008206;28;20070;-59
2024/03/30 08:13:30;;;;;;;5.43;1.10;;;19.00;54.00;;;;;;5007885;28;20070;-59
2024/03/30 08:15:57;;;;;;;5.15;0.90;;;18.90;54.50;;;;;;5006293;28;20524;-59
2024/03/30 08:18:23;;;;;;;2.78;0.93;;;19.00;54.20;;;;;;5008613;28;20070;-59
2024/03/30 08:20:50;;;;;;;3.10;0.90;;;18.90;54.80;;;;;;5008674;28;20098;-59
2024/03/30 08:23:16;;;;;;;6.53;1.33;;;18.80;55.00;;;;;;5007871;28;20070;-59
2024/03/30 08:25:44;;;;;;;4.82;1.00;;;18.60;55.60;;;;;;5008946;28;20082;-59
2024/03/30 08:28:11;;;;;;;5.22;1.05;;;18.40;55.90;;;;;;4988117;28;20102;-59
2024/03/30 08:30:37;;;;;;;2.38;0.50;;;18.30;56.30;;;;;;5008783;28;20086;-59
2024/03/30 08:33:04;;;;;;;3.38;0.90;;;18.20;56.70;;;;;;4989204;28;20181;-59
2024/03/30 08:35:31;;;;;;;6.03;1.00;;;18.20;56.90;;;;;;5007247;28;20082;-59
2024/03/30 08:37:57;;;;;;;4.00;1.13;;;18.20;57.10;;;;;;5005535;28;20121;-59
2024/03/30 08:40:23;;;;;;;1.77;0.80;;;18.00;57.60;;;;;;5007217;28;20122;-59
2024/03/30 08:42:50;;;;;;;4.63;1.23;;;18.00;57.80;;;;;;5006417;28;20071;-59
2024/03/30 08:45:19;;;;;;;4.78;1.08;;;18.00;58.10;;;;;;5008132;28;20075;-58
2024/03/30 08:47:46;;;;;;;2.08;1.00;;;18.20;58.30;;;;;;5005001;28;20074;-58
2024/03/30 08:50:12;;;;;;;4.32;1.15;;;18.10;58.30;;;;;;5008209;28;20078;-60
2024/03/30 08:52:39;;;;;;;3.63;1.02;;;18.10;58.70;;;;;;5005808;28;20154;-59
2024/03/30 08:55:05;;;;;;;5.03;1.00;;;18.20;58.70;;;;;;5006826;28;20067;-59
2024/03/30 08:57:32;;;;;;;2.38;0.90;;;18.20;58.20;;;;;;5007711;28;20070;-60
2024/03/30 08:59:58;;;;;;;2.88;1.10;;;18.00;58.60;;;;;;5008159;28;20113;-60
2024/03/30 09:02:26;;;;;;;3.25;1.40;;;17.90;58.90;;;;;;4989781;28;20098;-59
2024/03/30 09:04:53;;;;;;;6.20;1.50;;;17.60;60.10;;;;;;5006763;28;20074;-61
2024/03/30 09:07:20;;;;;;;4.32;1.00;;;17.30;61.60;;;;;;5007602;28;20075;-58
2024/03/30 09:09:46;;;;;;;4.18;1.30;;;17.20;62.40;;;;;;4990150;28;20428;-59
2024/03/30 09:12:14;;;;;;;4.07;1.20;;;17.20;62.80;;;;;;4987905;28;20215;-59
2024/03/30 09:14:40;;;;;;;3.65;1.48;;;17.10;64.50;;;;;;5006603;28;20075;-59
2024/03/30 09:17:07;;;;;;;5.00;1.23;;;17.00;64.40;;;;;;5006710;28;20083;-60
2024/03/30 09:19:33;;;;;;;3.38;1.13;;;16.90;65.10;;;;;;5005715;28;20081;-60
2024/03/30 09:22:00;;;;;;;6.78;1.45;;;16.80;65.40;;;;;;5006375;28;20130;-59
2024/03/30 09:24:26;;;;;;;5.07;1.23;;;16.70;66.30;;;;;;5006355;28;20126;-60
2024/03/30 09:26:53;;;;;;;7.40;1.27;;;16.60;66.70;;;;;;5005185;28;20074;-59
2024/03/30 09:29:19;;;;;;;4.90;1.20;;;16.50;67.00;;;;;;5007066;28;21126;-59
2024/03/30 09:31:46;;;;;;;3.08;1.30;;;16.50;67.40;;;;;;5007394;28;20100;-60
2024/03/30 09:34:13;;;;;;;4.45;1.60;;;16.40;67.50;;;;;;5007478;28;20071;-58
2024/03/30 09:36:39;;;;;;;3.15;1.83;;;16.50;67.80;;;;;;5005567;28;21091;-60
2024/03/30 09:39:06;;;;;;;5.60;2.03;;;16.40;67.90;;;;;;5005895;28;20102;-59
2024/03/30 09:41:48;;;;;;;8.18;1.73;;;16.40;68.20;;;;;;5007608;28;20101;-59
2024/03/30 09:44:16;;;;;;;4.28;1.40;;;16.40;68.40;;;;;;4988675;28;20104;-58
2024/03/30 09:46:46;;;;;;;5.97;1.30;;;16.30;68.50;;;;;;5007773;28;20281;-59
2024/03/30 09:49:15;;;;;;;7.78;1.50;;;16.30;68.80;;;;;;5007392;28;20074;-59
2024/03/30 09:51:46;;;;;;;3.63;1.30;;;16.20;69.10;;;;;;5006326;28;20070;-59
2024/03/30 09:54:14;;;;;;;3.05;1.10;;;16.20;69.60;;;;;;5007580;28;20163;-58
2024/03/30 09:56:45;;;;;;;4.38;1.38;;;16.10;69.80;;;;;;5007583;28;20078;-59
2024/03/30 09:59:13;;;;;;;4.03;1.02;;;16.10;70.20;;;;;;4988724;28;20132;-60
2024/03/30 10:01:40;;;;;;;3.08;1.10;;;16.10;70.60;;;;;;5007705;28;20098;-59
2024/03/30 10:04:07;;;;;;;1.80;0.90;;;16.10;70.70;;;;;;5005929;28;20508;-59
2024/03/30 10:06:57;;;;;;;2.40;1.20;;;16.10;70.80;;;;;;5007818;28;20393;-59
2024/03/30 10:09:27;;;;;;;6.22;1.08;;;16.20;70.60;;;;;;5006815;28;20098;-59
2024/03/30 10:12:24;;;;;;;2.20;0.95;;;16.20;70.60;;;;;;5006329;28;20067;-59
2024/03/30 10:14:53;;;;;;;3.17;1.30;;;16.20;70.80;;;;;;5007189;28;20166;-58
2024/03/30 10:17:20;;;;;;;5.00;1.08;;;16.20;70.90;;;;;;5006581;28;20078;-59
2024/03/30 10:19:50;;;;;;;4.80;1.30;;;16.30;70.80;;;;;;5007135;28;20069;-59
2024/03/30 10:22:16;;;;;;;2.95;1.38;;;16.30;71.20;;;;;;5006805;28;20094;-59
2024/03/30 10:24:44;;;;;;;6.30;1.20;;;16.30;71.00;;;;;;5004870;28;20066;-59
2024/03/30 10:27:10;;;;;;;7.25;1.55;;;16.50;70.80;;;;;;5007235;28;20070;-60
2024/03/30 10:29:37;;;;;;;9.55;1.40;;;16.40;70.80;;;;;;4989816;28;20439;-59
2024/03/30 10:32:07;;;;;;;6.57;1.38;;;16.40;71.00;;;;;;5009731;28;20177;-59
2024/03/30 10:34:34;;;;;;;6.22;1.20;;;16.50;71.10;;;;;;5007716;28;20125;-59
2024/03/30 10:37:00;;;;;;;8.38;1.48;;;16.50;71.10;;;;;;5009206;28;20205;-59
2024/03/30 10:39:31;;;;;;;2.65;1.02;;;16.60;70.90;;;;;;5010831;28;20110;-59
2024/03/30 10:41:58;;;;;;;7.60;1.30;;;16.50;71.00;;;;;;5009246;28;20098;-59
2024/03/30 10:44:31;;;;;;;8.27;1.13;;;16.30;71.30;;;;;;4992029;28;20169;-59
2024/03/30 10:46:57;;;;;;;3.25;1.10;;;16.30;72.00;;;;;;5007652;28;20086;-58
2024/03/30 10:49:25;;;;;;;5.63;1.10;;;16.10;72.20;;;;;;5009485;28;20081;-59
2024/03/30 10:51:55;;;;;;;2.22;0.98;;;16.30;71.80;;;;;;5010819;28;20071;-60
2024/03/30 10:54:22;;;;;;;2.63;1.10;;;16.30;71.80;;;;;;5009159;28;20153;-60
2024/03/30 10:56:52;;;;;;;3.08;1.05;;;16.20;72.00;;;;;;4992962;28;20168;-60
2024/03/30 10:59:20;;;;;;;5.93;1.35;;;16.10;72.40;;;;;;5009909;28;20520;-59
2024/03/30 11:01:50;;;;;;;11.45;1.55;;;15.90;73.40;;;;;;5009471;28;20561;-59
2024/03/30 11:04:19;;;;;;;8.90;1.45;;;15.90;73.60;;;;;;5008733;28;20086;-59
2024/03/30 11:06:47;;;;;;;11.57;2.50;;;15.90;73.80;;;;;;5010004;28;20074;-59
2024/03/30 11:09:16;;;;;;;6.35;1.30;;;15.80;74.20;;;;;;5010315;28;20066;-59
2024/03/30 11:11:49;;;;;;;4.93;1.30;;;15.80;75.10;;;;;;5008893;28;20074;-59
2024/03/30 11:14:16;;;;;;;9.40;1.65;;;15.80;74.70;;;;;;5008554;28;20078;-60
2024/03/30 11:16:51;;;;;;;4.78;1.30;;;15.90;74.40;;;;;;5010030;28;20075;-59
2024/03/30 11:19:33;;;;;;;3.72;1.30;;;15.90;74.60;;;;;;5009257;28;20072;-59
2024/03/30 11:22:52;;;;;;;3.97;1.10;;;15.90;74.80;;;;;;5008497;28;20098;-59
2024/03/30 11:25:22;;;;;;;3.75;0.93;;;15.80;75.30;;;;;;4990237;28;20067;-59
2024/03/30 11:28:02;;;;;;;3.88;1.08;;;15.60;76.50;;;;;;5009338;28;20513;-60
2024/03/30 11:30:55;;;;;;;6.60;1.05;;;15.60;76.80;;;;;;5008602;28;20399;-59
2024/03/30 11:33:43;;;;;;;4.63;1.42;;;15.50;77.30;;;;;;5005690;28;20538;-59
2024/03/30 11:36:21;;;;;;;7.47;1.38;;;15.50;78.20;;;;;;5007904;28;20082;-59
2024/03/30 11:38:52;;;;;;;6.72;1.65;;;15.60;78.10;;;;;;5007638;28;20081;-60
2024/03/30 11:41:18;;;;;;;3.22;0.88;;;15.60;78.10;;;;;;5007807;28;20552;-59
2024/03/30 11:44:00;;;;;;;6.07;1.58;;;15.50;78.70;;;;;;5009071;28;20570;-59
2024/03/30 11:46:28;;;;;;;3.30;1.40;;;15.40;79.10;;;;;;4990044;28;20074;-59
2024/03/30 11:48:55;;;;;;;6.40;1.23;;;15.60;78.20;;;;;;5006910;28;20516;-59
2024/03/30 11:51:22;;;;;;;5.85;1.10;;;15.60;77.90;;;;;;4991541;28;20071;-59
2024/03/30 11:53:49;;;;;;;5.85;1.27;;;15.60;78.00;;;;;;5008554;28;20129;-59
2024/03/30 11:56:15;;;;;;;6.13;2.08;;;15.50;78.10;;;;;;5008278;28;20544;-60
2024/03/30 11:58:43;;;;;;;7.50;2.60;;;15.70;77.80;;;;;;5009560;28;20070;-59
2024/03/30 12:01:12;;;;;;;7.68;1.90;;;15.70;77.20;;;;;;5006006;28;21276;-59
2024/03/30 12:03:41;;;;;;;5.65;1.70;;;15.60;77.90;;;;;;5006740;28;20469;-60
2024/03/30 12:06:18;;;;;;;14.10;2.17;;;15.40;79.30;;;;;;5007965;28;20101;-59
2024/03/30 12:08:44;;;;;;;11.38;2.80;;;15.30;79.30;;;;;;4990860;28;20070;-59
2024/03/30 12:11:15;;;;;;;6.88;2.30;;;15.40;79.10;;;;;;5007721;28;20063;-59
2024/03/30 12:13:43;;;;;;;7.43;2.35;;;15.50;78.90;;;;;;5007514;28;20451;-59
2024/03/30 12:16:09;;;;;;;8.77;2.28;;;15.50;78.80;;;;;;5007873;28;20155;-59
2024/03/30 12:18:36;;;;;;;6.95;2.08;;;15.30;79.60;;;;;;4990967;28;20157;-59
2024/03/30 12:21:03;;;;;;;15.82;2.42;;;15.30;79.40;;;;;;4991191;28;20102;-58
2024/03/30 12:23:30;;;;;;;12.50;2.30;;;15.40;80.20;;;;;;5008065;28;20492;-59
2024/03/30 12:25:59;;;;;;;9.68;2.40;;;15.20;79.90;;;;;;5008015;28;20066;-59
2024/03/30 12:28:26;;;;;;;6.25;2.15;;;15.10;81.20;;;;;;4990581;28;20232;-59
2024/03/30 12:30:53;;;;;;;12.23;2.30;;;15.20;80.80;;;;;;4988775;28;20077;-58
2024/03/30 12:33:21;;;;;;;12.20;2.65;;;15.10;80.80;;;;;;5006671;28;20079;-59
2024/03/30 12:35:48;;;;;;;13.05;2.65;;;15.10;81.00;;;;;;5007099;28;20070;-58
2024/03/30 12:38:17;;;;;;;13.50;2.58;;;15.00;81.00;;;;;;5007966;28;20078;-59
2024/03/30 12:40:45;;;;;;;10.15;2.50;;;14.90;82.20;;;;;;4989827;28;20153;-59
2024/03/30 12:43:15;;;;;;;8.98;2.40;;;14.70;82.60;;;;;;5006995;28;20090;-59
2024/03/30 12:45:42;;;;;;;7.70;2.58;;;14.80;82.60;;;;;;5005588;28;20476;-59
2024/03/30 12:48:10;;;;;;;16.85;2.80;;;14.80;82.80;;;;;;5007542;28;20070;-58